createdAt,value
2019-04-21T00:01:07.079Z,989.980
2019-04-21T00:02:53.688Z,989.954
2019-04-21T00:05:24.350Z,989.935
2019-04-21T00:07:24.850Z,989.888
2019-04-21T00:09:32.434Z,989.888
2019-04-21T00:11:21.807Z,989.810
2019-04-21T00:13:23.229Z,989.793
2019-04-21T00:15:20.087Z,989.773
2019-04-21T00:17:12.842Z,989.741
2019-04-21T00:19:12.530Z,989.720
2019-04-21T00:21:09.820Z,989.710
2019-04-21T00:23:27.360Z,989.685
2019-04-21T00:25:23.362Z,989.648
2019-04-21T00:27:24.345Z,989.647
2019-04-21T00:29:33.773Z,989.626
2019-04-21T00:31:28.165Z,989.617
2019-04-21T00:33:15.709Z,989.579
2019-04-21T00:35:11.613Z,989.529
2019-04-21T00:37:20.606Z,989.528
2019-04-21T00:39:28.478Z,989.539
2019-04-21T00:41:29.255Z,989.531
2019-04-21T00:43:27.824Z,989.512
2019-04-21T00:45:23.243Z,989.484
2019-04-21T00:47:30.154Z,989.467
2019-04-21T00:49:23.068Z,989.454
2019-04-21T00:51:38.266Z,989.451
2019-04-21T00:53:28.537Z,989.456
2019-04-21T00:55:26.518Z,989.447
2019-04-21T00:57:32.214Z,989.440
2019-04-21T00:59:25.458Z,989.435
2019-04-21T01:01:31.021Z,989.424
2019-04-21T01:03:31.216Z,989.408
2019-04-21T01:07:31.247Z,989.394
2019-04-21T01:09:23.576Z,989.387
2019-04-21T01:11:23.506Z,989.363
2019-04-21T01:13:31.932Z,989.346
2019-04-21T01:15:36.758Z,989.324
2019-04-21T01:17:27.206Z,989.278
2019-04-21T01:19:24.927Z,989.226
2019-04-21T01:20:50.121Z,989.219
2019-04-21T01:22:51.770Z,989.172
2019-04-21T01:25:19.755Z,989.142
2019-04-21T01:27:18.379Z,989.125
2019-04-21T01:31:22.347Z,989.082
2019-04-21T01:33:32.215Z,989.063
2019-04-21T01:35:25.242Z,989.043
2019-04-21T01:37:32.476Z,989.019
2019-04-21T01:39:34.028Z,989.021
2019-04-21T01:41:25.296Z,989.011
2019-04-21T01:43:27.411Z,989.011
2019-04-21T01:47:24.126Z,988.969
2019-04-21T01:49:19.032Z,989.014
2019-04-21T01:51:25.872Z,989.031
2019-04-21T01:53:30.451Z,989.013
2019-04-21T01:55:28.728Z,989.000
2019-04-21T01:57:22.229Z,989.018
2019-04-21T01:59:12.646Z,989.001
2019-04-21T02:03:40.489Z,988.943
2019-04-21T02:07:26.572Z,988.923
2019-04-21T02:09:25.368Z,988.933
2019-04-21T02:11:29.812Z,988.951
2019-04-21T02:13:27.477Z,988.951
2019-04-21T02:15:29.278Z,988.960
2019-04-21T02:17:27.568Z,988.977
2019-04-21T02:19:23.078Z,988.992
2019-04-21T02:21:21.368Z,988.989
2019-04-21T02:25:31.248Z,989.013
2019-04-21T02:27:29.430Z,989.005
2019-04-21T02:29:32.604Z,988.989
2019-04-21T02:33:45.504Z,988.951
2019-04-21T02:37:44.136Z,988.948
2019-04-21T02:39:37.089Z,988.913
2019-04-21T02:45:37.583Z,988.832
2019-04-21T02:47:44.340Z,988.805
2019-04-21T02:49:53.365Z,988.792
2019-04-21T02:54:11.626Z,988.811
2019-04-21T02:55:36.078Z,988.804
2019-04-21T02:57:41.037Z,988.784
2019-04-21T02:59:41.579Z,988.754
2019-04-21T03:03:27.446Z,988.702
2019-04-21T03:05:35.929Z,988.696
2019-04-21T03:07:40.543Z,988.659
2019-04-21T03:09:35.447Z,988.613
2019-04-21T03:11:34.179Z,988.599
2019-04-21T03:13:56.520Z,988.583
2019-04-21T03:15:37.093Z,988.568
2019-04-21T03:17:42.450Z,988.547
2019-04-21T03:21:36.459Z,988.564
2019-04-21T03:23:45.768Z,988.556
2019-04-21T03:25:40.746Z,988.561
2019-04-21T03:27:48.615Z,988.576
2019-04-21T03:32:03.271Z,988.607
2019-04-21T03:34:24.841Z,988.595
2019-04-21T03:37:36.293Z,988.579
2019-04-21T03:39:44.729Z,988.576
2019-04-21T03:41:28.593Z,988.571
2019-04-21T03:43:26.619Z,988.555
2019-04-21T03:47:34.357Z,988.593
2019-04-21T03:53:36.242Z,988.634
2019-04-21T03:55:52.732Z,988.629
2019-04-21T03:57:55.217Z,988.655
2019-04-21T03:59:24.002Z,988.669
2019-04-21T04:01:40.227Z,988.677
2019-04-21T04:03:51.549Z,988.658
2019-04-21T04:07:49.394Z,988.676
2019-04-21T04:09:44.190Z,988.674
2019-04-21T04:11:43.089Z,988.665
2019-04-21T04:17:25.283Z,988.614
2019-04-21T04:19:38.821Z,988.610
2019-04-21T04:21:47.345Z,988.608
2019-04-21T04:23:40.029Z,988.608
2019-04-21T04:27:37.625Z,988.610
2019-04-21T04:33:48.104Z,988.604
2019-04-21T04:35:52.065Z,988.614
2019-04-21T04:41:32.040Z,988.598
2019-04-21T04:43:32.649Z,988.598
2019-04-21T04:45:43.808Z,988.607
2019-04-21T04:47:40.927Z,988.630
2019-04-21T04:57:46.353Z,988.671
2019-04-21T04:59:42.226Z,988.672
2019-04-21T05:01:59.340Z,988.665
2019-04-21T05:05:33.942Z,988.663
2019-04-21T05:07:49.812Z,988.651
2019-04-21T05:09:38.928Z,988.635
2019-04-21T05:13:43.175Z,988.624
2019-04-21T05:15:23.196Z,988.616
2019-04-21T05:19:41.152Z,988.535
2019-04-21T05:21:38.498Z,988.530
2019-04-21T05:23:31.041Z,988.536
2019-04-21T05:25:26.169Z,988.538
2019-04-21T05:27:24.798Z,988.538
2019-04-21T05:29:19.251Z,988.548
2019-04-21T05:31:31.066Z,988.556
2019-04-21T05:33:31.992Z,988.556
2019-04-21T05:35:26.218Z,988.564
2019-04-21T05:37:28.363Z,988.556
2019-04-21T05:39:22.978Z,988.536
2019-04-21T05:41:20.491Z,988.527
2019-04-21T05:43:32.091Z,988.529
2019-04-21T05:45:33.214Z,988.529
2019-04-21T05:47:32.955Z,988.474
2019-04-21T05:49:26.228Z,988.474
2019-04-21T05:51:23.565Z,988.463
2019-04-21T05:53:35.557Z,988.446
2019-04-21T05:55:35.664Z,988.431
2019-04-21T05:57:28.702Z,988.432
2019-04-21T05:59:31.261Z,988.430
2019-04-21T06:03:36.587Z,988.451
2019-04-21T06:05:28.005Z,988.432
2019-04-21T06:07:28.354Z,988.416
2019-04-21T06:09:25.312Z,988.407
2019-04-21T06:11:30.208Z,988.403
2019-04-21T06:13:34.609Z,988.386
2019-04-21T06:15:35.892Z,988.377
2019-04-21T06:19:36.424Z,988.360
2019-04-21T06:21:32.957Z,988.353
2019-04-21T06:23:23.634Z,988.351
2019-04-21T06:27:31.001Z,988.331
2019-04-21T06:29:28.375Z,988.319
2019-04-21T06:33:35.492Z,988.294
2019-04-21T06:35:27.913Z,988.285
2019-04-21T06:37:42.983Z,988.290
2019-04-21T06:39:29.892Z,988.281
2019-04-21T06:41:31.030Z,988.271
2019-04-21T06:43:32.802Z,988.260
2019-04-21T06:45:34.409Z,988.217
2019-04-21T06:49:29.801Z,988.181
2019-04-21T06:51:30.379Z,988.159
2019-04-21T06:53:37.438Z,988.131
2019-04-21T06:55:26.252Z,988.123
2019-04-21T06:57:33.081Z,988.118
2019-04-21T06:59:31.508Z,988.132
2019-04-21T07:01:35.810Z,988.142
2019-04-21T07:03:34.432Z,988.136
2019-04-21T07:05:33.349Z,988.144
2019-04-21T07:07:21.537Z,988.122
2019-04-21T07:09:30.965Z,988.131
2019-04-21T07:11:30.097Z,988.086
2019-04-21T07:13:30.691Z,988.060
2019-04-21T07:15:36.754Z,988.054
2019-04-21T07:17:27.778Z,988.031
2019-04-21T07:19:34.507Z,988.027
2019-04-21T07:21:33.678Z,988.009
2019-04-21T07:23:30.107Z,987.997
2019-04-21T07:25:32.422Z,987.996
2019-04-21T07:27:34.916Z,987.996
2019-04-21T07:29:34.302Z,987.934
2019-04-21T07:33:41.001Z,987.893
2019-04-21T07:35:31.535Z,987.851
2019-04-21T07:37:29.689Z,987.832
2019-04-21T07:39:22.000Z,987.809
2019-04-21T07:41:18.192Z,987.795
2019-04-21T07:43:23.175Z,987.784
2019-04-21T07:45:26.055Z,987.749
2019-04-21T07:47:26.249Z,987.738
2019-04-21T07:49:24.979Z,987.715
2019-04-21T07:51:31.370Z,987.681
2019-04-21T07:53:33.256Z,987.693
2019-04-21T07:57:23.078Z,987.656
2019-04-21T08:01:30.337Z,987.610
2019-04-21T08:05:24.648Z,987.579
2019-04-21T08:09:25.400Z,987.558
2019-04-21T08:13:34.006Z,987.536
2019-04-21T08:15:26.400Z,987.511
2019-04-21T08:17:30.056Z,987.488
2019-04-21T08:21:33.718Z,987.444
2019-04-21T08:27:33.542Z,987.391
2019-04-21T08:29:32.723Z,987.386
2019-04-21T08:31:31.880Z,987.373
2019-04-21T08:33:31.757Z,987.333
2019-04-21T08:36:02.839Z,987.300
2019-04-21T08:37:30.565Z,987.256
2019-04-21T08:39:28.695Z,987.264
2019-04-21T08:41:22.593Z,987.256
2019-04-21T08:45:27.725Z,987.234
2019-04-21T08:47:32.923Z,987.203
2019-04-21T08:49:20.167Z,987.224
2019-04-21T08:51:30.836Z,987.204
2019-04-21T08:53:24.440Z,987.183
2019-04-21T08:55:31.650Z,987.190
2019-04-21T08:57:29.974Z,987.176
2019-04-21T08:59:30.738Z,987.158
2019-04-21T09:01:30.153Z,987.146
2019-04-21T09:03:28.079Z,987.107
2019-04-21T09:05:29.173Z,987.128
2019-04-21T09:07:31.888Z,987.128
2019-04-21T09:09:28.637Z,987.127
2019-04-21T09:11:28.259Z,987.110
2019-04-21T09:15:24.731Z,987.032
2019-04-21T09:17:24.743Z,987.000
2019-04-21T09:19:38.350Z,986.987
2019-04-21T09:23:25.376Z,986.929
2019-04-21T09:25:33.175Z,986.906
2019-04-21T09:27:24.629Z,986.917
2019-04-21T09:29:20.451Z,986.920
2019-04-21T09:31:03.169Z,986.888
2019-04-21T09:32:59.794Z,986.865
2019-04-21T09:34:52.914Z,986.820
2019-04-21T09:37:18.827Z,986.847
2019-04-21T09:39:12.907Z,986.852
2019-04-21T09:40:57.664Z,986.829
2019-04-21T09:43:08.323Z,986.818
2019-04-21T09:45:04.120Z,986.765
2019-04-21T09:47:03.094Z,986.770
2019-04-21T09:49:05.806Z,986.741
2019-04-21T09:50:50.607Z,986.726
2019-04-21T09:53:14.338Z,986.690
2019-04-21T09:55:13.834Z,986.690
2019-04-21T09:57:09.397Z,986.654
2019-04-21T09:59:16.387Z,986.658
2019-04-21T10:01:17.985Z,986.650
2019-04-21T10:03:10.222Z,986.650
2019-04-21T10:04:50.700Z,986.523
2019-04-21T10:06:50.061Z,986.527
2019-04-21T10:09:06.217Z,986.511
2019-04-21T10:10:51.323Z,986.452
2019-04-21T10:12:50.313Z,986.429
2019-04-21T10:14:49.962Z,986.405
2019-04-21T10:16:50.104Z,986.398
2019-04-21T10:18:50.650Z,986.364
2019-04-21T10:20:49.724Z,986.350
2019-04-21T10:22:51.147Z,986.331
2019-04-21T10:24:50.102Z,986.294
2019-04-21T10:26:51.572Z,986.265
2019-04-21T10:28:51.160Z,986.273
2019-04-21T10:30:51.158Z,986.205
2019-04-21T10:32:50.451Z,986.202
2019-04-21T10:34:49.916Z,986.133
2019-04-21T10:36:51.361Z,986.097
2019-04-21T10:38:55.677Z,986.102
2019-04-21T10:40:49.988Z,986.089
2019-04-21T10:42:50.290Z,986.058
2019-04-21T10:44:50.392Z,986.026
2019-04-21T10:46:55.958Z,985.932
2019-04-21T10:48:50.836Z,985.882
2019-04-21T10:50:49.923Z,985.858
2019-04-21T10:52:51.161Z,985.854
2019-04-21T10:55:26.117Z,985.861
2019-04-21T10:56:52.260Z,985.851
2019-04-21T10:58:50.539Z,985.803
2019-04-21T11:00:54.106Z,985.777
2019-04-21T11:02:50.880Z,985.780
2019-04-21T11:04:51.308Z,985.737
2019-04-21T11:06:50.928Z,985.717
2019-04-21T11:08:57.807Z,985.726
2019-04-21T11:10:50.160Z,985.728
2019-04-21T11:12:52.293Z,985.734
2019-04-21T11:14:49.843Z,985.708
2019-04-21T11:16:56.229Z,985.642
2019-04-21T11:18:51.959Z,985.551
2019-04-21T11:20:51.354Z,985.567
2019-04-21T11:22:51.603Z,985.565
2019-04-21T11:24:51.347Z,985.565
2019-04-21T11:26:52.131Z,985.554
2019-04-21T11:28:50.795Z,985.536
2019-04-21T11:30:51.208Z,985.536
2019-04-21T11:32:51.342Z,985.486
2019-04-21T11:34:51.697Z,985.412
2019-04-21T11:36:50.432Z,985.398
2019-04-21T11:39:21.825Z,985.387
2019-04-21T11:40:50.201Z,985.326
2019-04-21T11:42:49.730Z,985.280
2019-04-21T11:44:51.583Z,985.297
2019-04-21T11:46:49.825Z,985.277
2019-04-21T11:48:50.697Z,985.231
2019-04-21T11:50:51.107Z,985.192
2019-04-21T11:52:50.185Z,985.196
2019-04-21T11:54:51.166Z,985.194
2019-04-21T11:56:50.882Z,985.163
2019-04-21T11:58:50.236Z,985.120
2019-04-21T12:00:53.735Z,985.092
2019-04-21T12:02:51.438Z,985.078
2019-04-21T12:04:49.871Z,985.044
2019-04-21T12:06:55.938Z,985.049
2019-04-21T12:08:59.773Z,985.007
2019-04-21T12:10:49.679Z,985.007
2019-04-21T12:12:51.262Z,984.971
2019-04-21T12:14:50.482Z,984.979
2019-04-21T12:16:51.132Z,984.979
2019-04-21T12:18:52.559Z,984.962
2019-04-21T12:20:49.704Z,984.952
2019-04-21T12:22:49.695Z,984.892
2019-04-21T12:24:51.529Z,984.883
2019-04-21T12:26:50.270Z,984.857
2019-04-21T12:28:50.337Z,984.837
2019-04-21T12:30:51.851Z,984.816
2019-04-21T12:32:52.194Z,984.791
2019-04-21T12:34:55.040Z,984.791
2019-04-21T12:36:50.979Z,984.682
2019-04-21T12:39:01.683Z,984.668
2019-04-21T12:40:51.027Z,984.647
2019-04-21T12:42:50.694Z,984.611
2019-04-21T12:44:49.949Z,984.547
2019-04-21T12:46:50.061Z,984.499
2019-04-21T12:48:50.007Z,984.498
2019-04-21T12:50:50.122Z,984.484
2019-04-21T12:52:49.892Z,984.434
2019-04-21T12:54:49.678Z,984.362
2019-04-21T12:56:49.797Z,984.284
2019-04-21T12:58:51.224Z,984.281
2019-04-21T13:00:51.866Z,984.247
2019-04-21T13:02:50.121Z,984.219
2019-04-21T13:04:55.769Z,984.191
2019-04-21T13:06:50.278Z,984.211
2019-04-21T13:09:07.378Z,984.186
2019-04-21T13:10:50.245Z,984.184
2019-04-21T13:12:50.336Z,984.127
2019-04-21T13:14:49.993Z,984.093
2019-04-21T13:16:51.871Z,984.064
2019-04-21T13:18:51.426Z,984.041
2019-04-21T13:20:49.646Z,983.988
2019-04-21T13:22:50.520Z,983.942
2019-04-21T13:24:51.863Z,983.921
2019-04-21T13:27:01.613Z,983.908
2019-04-21T13:28:50.302Z,983.886
2019-04-21T13:30:50.887Z,983.815
2019-04-21T13:32:51.549Z,983.782
2019-04-21T13:34:52.661Z,983.767
2019-04-21T13:36:50.161Z,983.761
2019-04-21T13:39:37.620Z,983.723
2019-04-21T13:41:21.326Z,983.670
2019-04-21T13:43:02.367Z,983.666
2019-04-21T13:44:51.198Z,983.607
2019-04-21T13:46:50.361Z,983.582
2019-04-21T13:48:50.936Z,983.563
2019-04-21T13:50:51.399Z,983.498
2019-04-21T13:52:51.336Z,983.472
2019-04-21T13:54:51.748Z,983.451
2019-04-21T13:56:52.267Z,983.457
2019-04-21T13:58:50.723Z,983.442
2019-04-21T14:00:54.251Z,983.397
2019-04-21T14:02:49.844Z,983.362
2019-04-21T14:04:51.989Z,983.302
2019-04-21T14:06:50.347Z,983.269
2019-04-21T14:08:52.714Z,983.269
2019-04-21T14:10:51.606Z,983.191
2019-04-21T14:12:50.890Z,983.204
2019-04-21T14:14:50.577Z,983.228
2019-04-21T14:16:52.228Z,983.215
2019-04-21T14:18:49.990Z,983.163
2019-04-21T14:20:49.689Z,983.173
2019-04-21T14:22:51.811Z,983.099
2019-04-21T14:24:50.234Z,983.087
2019-04-21T14:26:50.403Z,983.099
2019-04-21T14:28:51.456Z,983.053
2019-04-21T14:30:50.751Z,983.053
2019-04-21T14:32:50.099Z,983.019
2019-04-21T14:34:54.121Z,982.985
2019-04-21T14:36:51.079Z,982.960
2019-04-21T14:38:50.629Z,982.963
2019-04-21T14:40:50.586Z,982.982
2019-04-21T14:42:50.302Z,982.941
2019-04-21T14:44:51.409Z,982.889
2019-04-21T14:46:50.950Z,982.881
2019-04-21T14:48:51.083Z,982.878
2019-04-21T14:50:50.687Z,982.856
2019-04-21T14:52:50.829Z,982.828
2019-04-21T14:54:51.124Z,982.801
2019-04-21T14:56:51.514Z,982.792
2019-04-21T14:58:51.106Z,982.810
2019-04-21T15:00:53.105Z,982.785
2019-04-21T15:02:51.697Z,982.779
2019-04-21T15:04:51.706Z,982.777
2019-04-21T15:06:49.795Z,982.756
2019-04-21T15:08:49.648Z,982.714
2019-04-21T15:10:50.301Z,982.676
2019-04-21T15:12:51.970Z,982.681
2019-04-21T15:14:51.965Z,982.660
2019-04-21T15:16:51.432Z,982.635
2019-04-21T15:18:50.816Z,982.618
2019-04-21T15:20:50.819Z,982.602
2019-04-21T15:22:50.656Z,982.570
2019-04-21T15:24:50.507Z,982.553
2019-04-21T15:26:53.205Z,982.547
2019-04-21T15:28:51.245Z,982.550
2019-04-21T15:30:50.623Z,982.543
2019-04-21T15:32:50.850Z,982.547
2019-04-21T15:34:50.146Z,982.522
2019-04-21T15:36:50.558Z,982.508
2019-04-21T15:38:52.152Z,982.504
2019-04-21T15:41:04.161Z,982.458
2019-04-21T15:42:50.798Z,982.432
2019-04-21T15:44:50.785Z,982.423
2019-04-21T15:46:50.327Z,982.410
2019-04-21T15:48:51.253Z,982.368
2019-04-21T15:50:51.937Z,982.363
2019-04-21T15:52:51.608Z,982.320
2019-04-21T15:54:50.584Z,982.314
2019-04-21T15:56:51.543Z,982.274
2019-04-21T15:58:50.828Z,982.273
2019-04-21T16:00:50.005Z,982.215
2019-04-21T16:02:51.067Z,982.195
2019-04-21T16:04:50.786Z,982.173
2019-04-21T16:06:50.178Z,982.161
2019-04-21T16:09:00.686Z,982.146
2019-04-21T16:11:03.666Z,982.132
2019-04-21T16:12:51.652Z,982.105
2019-04-21T16:14:50.591Z,982.091
2019-04-21T16:16:49.778Z,982.072
2019-04-21T16:18:50.271Z,982.069
2019-04-21T16:20:51.849Z,982.069
2019-04-21T16:22:50.831Z,982.077
2019-04-21T16:24:50.777Z,982.076
2019-04-21T16:26:51.024Z,982.061
2019-04-21T16:28:51.421Z,982.059
2019-04-21T16:30:50.491Z,982.052
2019-04-21T16:32:50.522Z,982.072
2019-04-21T16:35:08.314Z,982.072
2019-04-21T16:36:50.049Z,982.082
2019-04-21T16:38:51.618Z,982.082
2019-04-21T16:41:03.112Z,982.077
2019-04-21T16:42:50.323Z,982.045
2019-04-21T16:44:50.457Z,982.029
2019-04-21T16:46:49.836Z,982.002
2019-04-21T16:48:49.896Z,981.992
2019-04-21T16:50:52.177Z,981.981
2019-04-21T16:52:50.258Z,981.974
2019-04-21T16:54:52.006Z,981.947
2019-04-21T16:56:50.348Z,981.945
2019-04-21T16:58:50.749Z,981.941
2019-04-21T17:01:10.590Z,981.928
2019-04-21T17:02:50.731Z,981.890
2019-04-21T17:04:50.401Z,981.875
2019-04-21T17:06:51.489Z,981.850
2019-04-21T17:08:50.867Z,981.838
2019-04-21T17:11:18.658Z,981.837
2019-04-21T17:12:51.528Z,981.835
2019-04-21T17:15:23.801Z,981.838
2019-04-21T17:17:32.076Z,981.853
2019-04-21T17:19:17.821Z,981.856
2019-04-21T17:21:02.684Z,981.821
2019-04-21T17:22:51.712Z,981.817
2019-04-21T17:24:50.744Z,981.825
2019-04-21T17:26:51.560Z,981.799
2019-04-21T17:28:50.355Z,981.799
2019-04-21T17:30:50.742Z,981.788
2019-04-21T17:32:54.146Z,981.785
2019-04-21T17:34:50.318Z,981.773
2019-04-21T17:36:51.215Z,981.791
2019-04-21T17:38:50.412Z,981.757
2019-04-21T17:40:52.005Z,981.757
2019-04-21T17:43:09.024Z,981.730
2019-04-21T17:44:51.394Z,981.704
2019-04-21T17:47:06.053Z,981.708
2019-04-21T17:48:50.463Z,981.729
2019-04-21T17:50:51.792Z,981.735
2019-04-21T17:53:08.606Z,981.739
2019-04-21T17:55:08.834Z,981.757
2019-04-21T18:01:24.614Z,981.801
2019-04-21T18:03:37.336Z,981.819
2019-04-21T18:05:31.773Z,981.831
2019-04-21T18:07:29.777Z,981.824
2019-04-21T18:09:36.180Z,981.812
2019-04-21T18:11:15.870Z,981.802
2019-04-21T18:13:12.701Z,981.828
2019-04-21T18:15:21.482Z,981.835
2019-04-21T18:16:53.653Z,981.833
2019-04-21T18:18:50.962Z,981.833
2019-04-21T18:20:55.040Z,981.842
2019-04-21T18:22:56.631Z,981.841
2019-04-21T18:25:12.359Z,981.841
2019-04-21T18:27:03.716Z,981.854
2019-04-21T18:28:59.195Z,981.865
2019-04-21T18:30:50.389Z,981.895
2019-04-21T18:32:50.521Z,981.914
2019-04-21T18:35:07.350Z,981.920
2019-04-21T18:36:57.463Z,981.939
2019-04-21T18:39:21.416Z,981.941
2019-04-21T18:40:57.660Z,981.961
2019-04-21T18:47:31.365Z,982.017
2019-04-21T18:49:02.644Z,982.042
2019-04-21T18:51:12.270Z,982.055
2019-04-21T18:53:16.446Z,982.062
2019-04-21T18:55:17.595Z,982.061
2019-04-21T18:57:17.097Z,982.094
2019-04-21T18:58:51.196Z,982.106
2019-04-21T19:01:10.391Z,982.119
2019-04-21T19:02:59.756Z,982.119
2019-04-21T19:05:01.312Z,982.130
2019-04-21T19:07:19.691Z,982.133
2019-04-21T19:09:34.920Z,982.134
2019-04-21T19:11:23.539Z,982.135
2019-04-21T19:13:36.101Z,982.143
2019-04-21T19:15:26.633Z,982.161
2019-04-21T19:19:43.963Z,982.141
2019-04-21T19:21:24.071Z,982.133
2019-04-21T19:23:38.979Z,982.125
2019-04-21T19:25:25.138Z,982.130
2019-04-21T19:27:25.912Z,982.111
2019-04-21T19:29:27.320Z,982.110
2019-04-21T19:31:22.904Z,982.112
2019-04-21T19:33:23.966Z,982.117
2019-04-21T19:35:04.062Z,982.111
2019-04-21T19:37:15.356Z,982.111
2019-04-21T19:39:15.997Z,982.112
2019-04-21T19:41:25.136Z,982.106
2019-04-21T19:43:22.923Z,982.101
2019-04-21T19:45:17.472Z,982.097
2019-04-21T19:47:27.705Z,982.081
2019-04-21T19:49:31.892Z,982.073
2019-04-21T19:51:21.770Z,982.071
2019-04-21T19:53:24.129Z,982.076
2019-04-21T19:54:54.905Z,982.053
2019-04-21T19:56:51.638Z,982.044
2019-04-21T19:58:51.077Z,982.053
2019-04-21T20:00:57.673Z,982.056
2019-04-21T20:02:50.672Z,982.050
2019-04-21T20:05:07.848Z,982.031
2019-04-21T20:07:22.659Z,982.036
2019-04-21T20:09:21.661Z,982.035
2019-04-21T20:11:30.095Z,982.018
2019-04-21T20:13:34.846Z,982.010
2019-04-21T20:15:35.446Z,981.994
2019-04-21T20:17:30.972Z,981.981
2019-04-21T20:19:08.167Z,981.964
2019-04-21T20:20:50.478Z,981.947
2019-04-21T20:22:55.605Z,981.943
2019-04-21T20:25:11.716Z,981.922
2019-04-21T20:27:17.520Z,981.923
2019-04-21T20:29:24.699Z,981.923
2019-04-21T20:31:23.198Z,981.925
2019-04-21T20:33:41.156Z,981.926
2019-04-21T20:35:28.084Z,981.915
2019-04-21T20:37:25.009Z,981.911
2019-04-21T20:39:13.718Z,981.911
2019-04-21T20:41:21.234Z,981.914
2019-04-21T20:43:24.890Z,981.898
2019-04-21T20:45:40.039Z,981.890
2019-04-21T20:47:15.835Z,981.876
2019-04-21T20:49:21.599Z,981.864
2019-04-21T20:51:27.023Z,981.841
2019-04-21T20:53:25.803Z,981.835
2019-04-21T20:55:19.734Z,981.820
2019-04-21T20:57:21.557Z,981.832
2019-04-21T20:59:19.030Z,981.826
2019-04-21T21:01:39.207Z,981.819
2019-04-21T21:03:28.651Z,981.816
2019-04-21T21:05:21.909Z,981.826
2019-04-21T21:07:39.877Z,981.820
2019-04-21T21:09:22.788Z,981.814
2019-04-21T21:11:29.154Z,981.809
2019-04-21T21:15:25.683Z,981.789
2019-04-21T21:17:38.807Z,981.773
2019-04-21T21:19:28.432Z,981.787
2019-04-21T21:23:17.275Z,981.799
2019-04-21T21:27:24.429Z,981.799
2019-04-21T21:29:26.252Z,981.783
2019-04-21T21:31:24.194Z,981.782
2019-04-21T21:33:16.805Z,981.778
2019-04-21T21:35:21.240Z,981.787
2019-04-21T21:37:31.708Z,981.785
2019-04-21T21:39:21.124Z,981.779
2019-04-21T21:41:18.853Z,981.765
2019-04-21T21:42:51.350Z,981.752
2019-04-21T21:45:12.442Z,981.752
2019-04-21T21:47:23.840Z,981.750
2019-04-21T21:49:23.549Z,981.731
2019-04-21T21:51:18.608Z,981.727
2019-04-21T21:53:13.315Z,981.725
2019-04-21T21:54:52.067Z,981.719
2019-04-21T21:56:50.605Z,981.691
2019-04-21T21:58:53.482Z,981.680
2019-04-21T22:01:04.831Z,981.689
2019-04-21T22:02:59.128Z,981.689
2019-04-21T22:05:14.707Z,981.655
2019-04-21T22:07:11.336Z,981.654
2019-04-21T22:08:50.639Z,981.633
2019-04-21T22:10:50.228Z,981.631
2019-04-21T22:13:11.956Z,981.612
2019-04-21T22:14:55.725Z,981.612
2019-04-21T22:17:21.296Z,981.590
2019-04-21T22:19:29.304Z,981.562
2019-04-21T22:21:23.022Z,981.554
2019-04-21T22:23:13.734Z,981.536
2019-04-21T22:25:18.201Z,981.539
2019-04-21T22:26:52.381Z,981.534
2019-04-21T22:28:49.918Z,981.543
2019-04-21T22:30:55.473Z,981.543
2019-04-21T22:33:08.852Z,981.505
2019-04-21T22:35:08.921Z,981.512
2019-04-21T22:37:21.011Z,981.508
2019-04-21T22:39:23.670Z,981.504
2019-04-21T22:41:18.797Z,981.484
2019-04-21T22:43:16.679Z,981.476
2019-04-21T22:44:50.520Z,981.465
2019-04-21T22:47:16.867Z,981.472
2019-04-21T22:49:03.657Z,981.477
2019-04-21T22:50:50.851Z,981.473
2019-04-21T22:53:04.657Z,981.484
2019-04-21T22:54:55.543Z,981.468
2019-04-21T22:57:12.699Z,981.466
2019-04-21T22:58:53.210Z,981.466
2019-04-21T23:01:03.870Z,981.458
2019-04-21T23:03:10.517Z,981.457
2019-04-21T23:05:00.435Z,981.463
2019-04-21T23:07:11.288Z,981.446
2019-04-21T23:08:53.140Z,981.444
2019-04-21T23:11:06.964Z,981.449
2019-04-21T23:12:50.428Z,981.446
2019-04-21T23:15:11.696Z,981.427
2019-04-21T23:17:23.836Z,981.435
2019-04-21T23:19:23.540Z,981.426
2019-04-21T23:21:19.319Z,981.442
2019-04-21T23:23:20.838Z,981.429
2019-04-21T23:25:25.948Z,981.407
2019-04-21T23:27:19.856Z,981.391
2019-04-21T23:29:37.589Z,981.365
2019-04-21T23:31:24.309Z,981.334
2019-04-21T23:33:08.549Z,981.317
2019-04-21T23:34:55.698Z,981.300
2019-04-21T23:37:10.492Z,981.283
2019-04-21T23:38:58.115Z,981.244
2019-04-21T23:41:05.342Z,981.230
2019-04-21T23:42:51.463Z,981.201
2019-04-21T23:44:59.971Z,981.202
2019-04-21T23:47:06.460Z,981.174
2019-04-21T23:49:18.376Z,981.169
2019-04-21T23:51:21.310Z,981.143
2019-04-21T23:52:50.038Z,981.105
2019-04-21T23:54:51.774Z,981.078
2019-04-21T23:56:49.953Z,981.072
2019-04-21T23:59:07.308Z,981.061
